Flight Track Log - Related Links

Times and Time Zones

All times are in EDT time to prevent confusion due to time zone crossing. See the N601AA flight status page for this flight to view local times or setup timezone preferences in your user account.

Time Position Orientation Groundspeed Altitude Reporting Facility
EDT Latitude Longitude Course Direction KTS MPH feet Rate Location/Type
Wed 12:41:45 PM 47.3839 -122.3092 177° South 278 320 3,400  Level Seattle Center
Wed 12:42:22 PM 47.3353 -122.3092 180° South 295 339 4,700 2,909 Climbing Seattle Center
Wed 12:43:24 PM 47.2967 -122.2275 125° Southeast 267 307 8,200 3,512 Climbing Seattle Center
Wed 12:44:25 PM 47.3336 -122.1164 64° Northeast 281 323 11,900 2,951 Climbing Seattle Center
Wed 12:45:26 PM 47.3806 -121.9972 60° Northeast 343 395 14,200 2,164 Climbing Seattle Center
Wed 12:46:27 PM 47.4333 -121.8531 62° Northeast 400 460 16,300 1,967 Climbing Seattle Center
Wed 12:47:28 PM 47.4883 -121.7025 62° Northeast 425 489 18,200 2,311 Climbing Seattle Center
Wed 12:48:29 PM 47.5503 -121.5489 59° Northeast 433 498 21,000 1,366 Climbing Seattle Center
Wed 12:49:31 PM 47.5550 -121.3567 88° East 472 543 21,000  Level Seattle Center
Wed 12:50:32 PM 47.5517 -121.1469 91° East 498 573 21,000  Level Seattle Center
Wed 12:51:33 PM 47.5500 -120.9372 91° East 512 589 21,000  Level Seattle Center
Wed 12:52:34 PM 47.5439 -120.7128 92° East 486 559 21,000  Level Seattle Center
Wed 12:53:35 PM 47.5400 -120.5158 92° East 483 556 21,000  Level Seattle Center
Wed 12:54:36 PM 47.5350 -120.3231 92° East 475 547 21,000  Level Seattle Center
Wed 12:55:38 PM 47.5247 -120.1308 94° East 474 545 21,000  Level Seattle Center
Wed 12:56:39 PM 47.5164 -119.9386 94° East 473 544 21,000  Level Seattle Center
Wed 12:57:40 PM 47.5053 -119.7467 95° East 472 543 21,000  Level Seattle Center
Wed 12:58:41 PM 47.4969 -119.5461 93° East 486 559 21,000  Level Seattle Center
Wed 12:59:42 PM 47.4842 -119.3039 94° East 492 566 21,000  Level Seattle Center
Wed 01:00:43 PM 47.4742 -119.1028 94° East 492 566 21,000 -639 Level Seattle Center
Wed 01:01:44 PM 47.4606 -118.9022 96° East 492 566 19,700 -1,659 Descending Seattle Center
Wed 01:02:46 PM 47.4478 -118.6992 95° East 460 529 17,600 -1,902 Descending Seattle Center
Wed 01:03:47 PM 47.4369 -118.5256 95° East 426 490 15,800 -2,164 Descending Seattle Center
Wed 01:04:48 PM 47.4275 -118.3533 95° East 417 480 13,200 -1,377 Descending Seattle Center
Wed 01:05:49 PM 47.4189 -118.2158 95° East 334 384 13,000 -148 Descending Seattle Center
Wed 01:06:50 PM 47.4119 -118.0842 94° East 324 373 12,900 -1,279 Descending Seattle Center
Wed 01:07:51 PM 47.4031 -117.9456 95° East 319 367 10,400 -2,213 Descending Seattle Center
Wed 01:08:52 PM 47.4122 -117.8353 83° East 277 319 8,400 -1,574 Descending Seattle Center
Wed 01:09:53 PM 47.4519 -117.7786 44° Northeast 195 224 7,200 -1,180 Descending Seattle Center
Wed 01:10:54 PM 47.4842 -117.7419 38° Northeast 152 175 6,000 -878 Descending Seattle Center
Wed 01:11:56 PM 47.5153 -117.6925 47° Northeast 162 186 5,400 -927 Descending Seattle Center
Wed 01:12:57 PM 47.5486 -117.6428 45° Northeast 162 186 4,100 -984 Descending Seattle Center
Wed 01:13:58 PM 47.5769 -117.6003 45° Northeast 152 175 3,400 -787 Descending Seattle Center
Wed 01:14:59 PM 47.6058 -117.5572 45° Northeast 151 174 2,500 -541 Descending Seattle Center
Wed 01:16:00 PM 47.6261 -117.5286 44° Northeast 124 143 2,300 -197 Descending Seattle Center

Login

Don't have an account? Register now (free) for customized features, flight alerts, and more!